Chestnut Ridge, PA (15422)

7:36 AM EDT on March 30, 2015 (GMT -0400)
Dunbar | | Change Station
CLOSE
Current Station
Personal Weather Station
Location: Dunbar, PA
Elevation: 1056 ft
Nearby Weather Stations

Elev 1056 ft 40.00 °N, 79.69 °W | Updated 54 seconds ago

Overcast
Overcast
39.2 °F
Feels Like 37 °F
N
3.1
Wind Variable Wind from SE
Gusts 4.5 mph

Today
High -- | Low -- °F
--% Chance of Precip.
Yesterday
High -- | Low -- °F
Precip. -- in
7:06 AM 7:41 PM
Waxing Gibbous, 79% visible
Pressure 29.92 in
Visibility 10.0 miles
Clouds Few 600 ft
Scattered Clouds 1000 ft
Overcast 2000 ft
Windchill 37 °F
Dew Point 39 °F
Humidity 99%
Rainfall 0.00 in
Snow Depth Not available.
UV 0 out of 12
Pollen 6.00 out of 12
Air Quality Not available.
Flu Activity Not available.
SPECI KMGW 301131Z 21005KT 10SM -RA BR FEW006 SCT010 OVC020 04/02 A2992 RMK AO2 P0000 T00440022

More Conditions Fewer Conditions

Pressure 29.92 in
Visibility 10.0 miles
Clouds Few 600 ft
Scattered Clouds 1000 ft
Overcast 2000 ft
Windchill 37 °F
Dew Point 39 °F
Humidity 99%
Rainfall 0.00 in
Snow Depth Not available.
UV 0 out of 12
Pollen 6.00 out of 12
Air Quality Not available.
Flu Activity Not available.
SPECI KMGW 301131Z 21005KT 10SM -RA BR FEW006 SCT010 OVC020 04/02 A2992 RMK AO2 P0000 T00440022

More Conditions Fewer Conditions

10-Day Weather Forecast

Almanac

Astronomy

Mar. 30, 2015 Rise Set
Actual Time
Civil Twilight
Nautical Twilight
Astronomical Twilight
Moon
Length of Visible Light
Length of Day
Tomorrow will be .
, % of the Moon is Illuminated

Today's Extremes

State Highs State Lows

Community

WunderPhotos

Upload Photos

1,809,457 photos uploaded!

WunderBlogs® & News

Nearby

Air Quality

  Air Quality AQ Index Pollutant
Not available.

Snow Depth

Station Depth Elevation

Earthquake Activity

City Distance Mag. Time & Date
Minimum magnitude displayed is 2.5.

Coastal Water Temperatures

Place Temperature

Stations

Nearby Weather Stations

Station Location Temp. Windchill Dew Point Humidity Wind Precip. Elev Updated Type